sensor_id;sensor_type;location;lat;lon;timestamp;pressure;altitude;pressure_sealevel;temperature;humidity
9225;BME280;4647;48.072;11.616;2024-01-25T00:02:24;96295.81;;;7.77;78.52
9225;BME280;4647;48.072;11.616;2024-01-25T00:04:52;96303.25;;;7.84;78.85
9225;BME280;4647;48.072;11.616;2024-01-25T00:07:21;96304.31;;;7.79;79.00
9225;BME280;4647;48.072;11.616;2024-01-25T00:09:49;96302.72;;;7.75;79.29
9225;BME280;4647;48.072;11.616;2024-01-25T00:12:20;96308.88;;;7.75;79.64
9225;BME280;4647;48.072;11.616;2024-01-25T00:14:49;96309.66;;;7.76;79.56
9225;BME280;4647;48.072;11.616;2024-01-25T00:17:18;96302.31;;;7.73;80.21
9225;BME280;4647;48.072;11.616;2024-01-25T00:19:46;96307.75;;;7.76;80.12
9225;BME280;4647;48.072;11.616;2024-01-25T00:22:15;96314.41;;;7.56;81.21
9225;BME280;4647;48.072;11.616;2024-01-25T00:24:43;96323.03;;;7.65;81.10
9225;BME280;4647;48.072;11.616;2024-01-25T00:27:11;96318.38;;;7.62;81.53
9225;BME280;4647;48.072;11.616;2024-01-25T00:29:43;96316.53;;;7.69;81.48
9225;BME280;4647;48.072;11.616;2024-01-25T00:32:11;96318.84;;;7.71;81.27
9225;BME280;4647;48.072;11.616;2024-01-25T00:34:41;96326.88;;;7.64;81.53
9225;BME280;4647;48.072;11.616;2024-01-25T00:37:10;96333.91;;;7.72;81.51
9225;BME280;4647;48.072;11.616;2024-01-25T00:39:40;96336.56;;;7.68;81.04
9225;BME280;4647;48.072;11.616;2024-01-25T00:42:12;96324.66;;;7.73;81.22
9225;BME280;4647;48.072;11.616;2024-01-25T00:44:44;96323.19;;;7.79;80.90
9225;BME280;4647;48.072;11.616;2024-01-25T00:47:13;96325.03;;;7.72;80.72
9225;BME280;4647;48.072;11.616;2024-01-25T00:49:42;96320.66;;;7.60;81.28
9225;BME280;4647;48.072;11.616;2024-01-25T00:52:12;96319.63;;;7.72;80.54
9225;BME280;4647;48.072;11.616;2024-01-25T00:54:41;96322.38;;;7.75;80.56
9225;BME280;4647;48.072;11.616;2024-01-25T00:57:11;96317.25;;;7.66;80.95
9225;BME280;4647;48.072;11.616;2024-01-25T00:59:43;96316.66;;;7.80;80.02
9225;BME280;4647;48.072;11.616;2024-01-25T01:02:13;96315.75;;;7.69;80.12
9225;BME280;4647;48.072;11.616;2024-01-25T01:04:42;96327.16;;;7.85;79.39
9225;BME280;4647;48.072;11.616;2024-01-25T01:07:11;96334.56;;;7.92;78.58
9225;BME280;4647;48.072;11.616;2024-01-25T01:09:40;96330.66;;;7.89;78.97
9225;BME280;4647;48.072;11.616;2024-01-25T01:12:08;96340.59;;;7.82;78.58
9225;BME280;4647;48.072;11.616;2024-01-25T01:14:36;96343.09;;;7.97;78.12
9225;BME280;4647;48.072;11.616;2024-01-25T01:17:07;96344.53;;;7.88;78.64
9225;BME280;4647;48.072;11.616;2024-01-25T01:19:36;96358.16;;;7.98;78.21
9225;BME280;4647;48.072;11.616;2024-01-25T01:22:04;96365.88;;;8.00;77.78
9225;BME280;4647;48.072;11.616;2024-01-25T01:24:34;96370.81;;;7.94;78.27
9225;BME280;4647;48.072;11.616;2024-01-25T01:27:03;96356.19;;;7.95;78.13
9225;BME280;4647;48.072;11.616;2024-01-25T01:29:31;96356.38;;;8.10;77.92
9225;BME280;4647;48.072;11.616;2024-01-25T01:32:00;96357.47;;;8.05;77.71
9225;BME280;4647;48.072;11.616;2024-01-25T01:34:31;96366.28;;;8.02;78.23
9225;BME280;4647;48.072;11.616;2024-01-25T01:36:59;96359.28;;;7.97;78.11
9225;BME280;4647;48.072;11.616;2024-01-25T01:39:28;96357.56;;;8.12;77.89
9225;BME280;4647;48.072;11.616;2024-01-25T01:41:56;96350.25;;;7.83;78.97
9225;BME280;4647;48.072;11.616;2024-01-25T01:44:25;96340.72;;;7.92;78.78
9225;BME280;4647;48.072;11.616;2024-01-25T01:46:53;96340.66;;;7.85;79.07
9225;BME280;4647;48.072;11.616;2024-01-25T01:49:22;96332.84;;;7.80;79.33
9225;BME280;4647;48.072;11.616;2024-01-25T01:51:54;96320.56;;;7.83;79.66
9225;BME280;4647;48.072;11.616;2024-01-25T01:54:22;96325.56;;;7.81;79.67
9225;BME280;4647;48.072;11.616;2024-01-25T01:56:52;96334.44;;;7.81;79.82
9225;BME280;4647;48.072;11.616;2024-01-25T01:59:21;96329.28;;;7.73;80.17
9225;BME280;4647;48.072;11.616;2024-01-25T02:01:51;96336.56;;;7.68;80.56
9225;BME280;4647;48.072;11.616;2024-01-25T02:04:19;96329.31;;;7.76;80.36
9225;BME280;4647;48.072;11.616;2024-01-25T02:06:48;96327.81;;;7.79;80.22
9225;BME280;4647;48.072;11.616;2024-01-25T02:09:19;96333.84;;;7.98;79.60
9225;BME280;4647;48.072;11.616;2024-01-25T02:11:47;96337.66;;;7.94;79.80
9225;BME280;4647;48.072;11.616;2024-01-25T02:14:16;96324.81;;;7.84;80.14
9225;BME280;4647;48.072;11.616;2024-01-25T02:16:44;96326.47;;;7.92;80.07
9225;BME280;4647;48.072;11.616;2024-01-25T02:19:13;96316.34;;;7.85;80.05
9225;BME280;4647;48.072;11.616;2024-01-25T02:21:42;96322.91;;;7.84;80.59
9225;BME280;4647;48.072;11.616;2024-01-25T02:24:13;96327.88;;;7.82;80.99
9225;BME280;4647;48.072;11.616;2024-01-25T02:26:41;96316.41;;;7.89;80.69
9225;BME280;4647;48.072;11.616;2024-01-25T02:29:09;96320.66;;;7.90;80.68
9225;BME280;4647;48.072;11.616;2024-01-25T02:31:38;96320.09;;;7.77;80.99
9225;BME280;4647;48.072;11.616;2024-01-25T02:34:07;96322.84;;;7.81;81.39
9225;BME280;4647;48.072;11.616;2024-01-25T02:36:35;96312.41;;;7.79;81.19
9225;BME280;4647;48.072;11.616;2024-01-25T02:39:04;96309.81;;;7.86;80.71
9225;BME280;4647;48.072;11.616;2024-01-25T02:41:35;96305.97;;;7.87;80.82
9225;BME280;4647;48.072;11.616;2024-01-25T02:44:04;96315.19;;;7.83;81.14
9225;BME280;4647;48.072;11.616;2024-01-25T02:46:32;96298.13;;;7.79;81.20
9225;BME280;4647;48.072;11.616;2024-01-25T02:49:01;96301.97;;;7.78;81.37
9225;BME280;4647;48.072;11.616;2024-01-25T02:51:29;96306.19;;;7.75;81.68
9225;BME280;4647;48.072;11.616;2024-01-25T02:53:55;96301.41;;;7.91;81.35
9225;BME280;4647;48.072;11.616;2024-01-25T02:56:24;96301.75;;;7.90;81.57
9225;BME280;4647;48.072;11.616;2024-01-25T02:59:01;96298.50;;;7.77;82.38
9225;BME280;4647;48.072;11.616;2024-01-25T03:01:37;96298.78;;;7.68;83.18
9225;BME280;4647;48.072;11.616;2024-01-25T03:04:06;96307.97;;;7.64;83.45
9225;BME280;4647;48.072;11.616;2024-01-25T03:06:34;96306.06;;;7.64;84.09
9225;BME280;4647;48.072;11.616;2024-01-25T03:09:03;96299.16;;;7.67;83.71
9225;BME280;4647;48.072;11.616;2024-01-25T03:11:33;96298.84;;;7.72;83.75
9225;BME280;4647;48.072;11.616;2024-01-25T03:14:04;96296.00;;;7.61;84.45
9225;BME280;4647;48.072;11.616;2024-01-25T03:16:33;96307.97;;;7.64;84.31
9225;BME280;4647;48.072;11.616;2024-01-25T03:19:01;96312.59;;;7.63;84.00
9225;BME280;4647;48.072;11.616;2024-01-25T03:21:30;96297.81;;;7.54;84.63
9225;BME280;4647;48.072;11.616;2024-01-25T03:23:58;96298.66;;;7.58;84.71
9225;BME280;4647;48.072;11.616;2024-01-25T03:26:27;96299.38;;;7.55;84.53
9225;BME280;4647;48.072;11.616;2024-01-25T03:28:55;96294.50;;;7.64;84.79
9225;BME280;4647;48.072;11.616;2024-01-25T03:31:26;96291.66;;;7.53;85.55
9225;BME280;4647;48.072;11.616;2024-01-25T03:33:55;96294.72;;;7.52;85.77
9225;BME280;4647;48.072;11.616;2024-01-25T03:36:23;96275.50;;;7.57;86.21
9225;BME280;4647;48.072;11.616;2024-01-25T03:38:52;96277.66;;;7.44;86.97
9225;BME280;4647;48.072;11.616;2024-01-25T03:41:20;96276.13;;;7.43;87.38
9225;BME280;4647;48.072;11.616;2024-01-25T03:43:49;96274.16;;;7.40;87.69
9225;BME280;4647;48.072;11.616;2024-01-25T03:46:17;96277.16;;;7.35;88.06
9225;BME280;4647;48.072;11.616;2024-01-25T03:48:48;96271.34;;;7.33;88.08
9225;BME280;4647;48.072;11.616;2024-01-25T03:51:17;96281.09;;;7.41;87.61
9225;BME280;4647;48.072;11.616;2024-01-25T03:53:45;96276.13;;;7.43;87.38
9225;BME280;4647;48.072;11.616;2024-01-25T03:56:14;96289.22;;;7.45;87.17
9225;BME280;4647;48.072;11.616;2024-01-25T03:58:42;96287.31;;;7.45;87.00
9225;BME280;4647;48.072;11.616;2024-01-25T04:01:11;96299.19;;;7.41;87.11
9225;BME280;4647;48.072;11.616;2024-01-25T04:03:39;96301.16;;;7.44;87.16
9225;BME280;4647;48.072;11.616;2024-01-25T04:06:10;96296.59;;;7.48;87.01
9225;BME280;4647;48.072;11.616;2024-01-25T04:08:39;96303.34;;;7.34;87.58
9225;BME280;4647;48.072;11.616;2024-01-25T04:11:07;96305.97;;;7.31;87.75
9225;BME280;4647;48.072;11.616;2024-01-25T04:13:36;96305.78;;;7.43;87.38
9225;BME280;4647;48.072;11.616;2024-01-25T04:16:05;96300.28;;;7.36;87.35
9225;BME280;4647;48.072;11.616;2024-01-25T04:18:34;96300.88;;;7.26;87.52
9225;BME280;4647;48.072;11.616;2024-01-25T04:21:02;96303.69;;;7.33;87.47
9225;BME280;4647;48.072;11.616;2024-01-25T04:23:33;96307.63;;;7.39;86.82
9225;BME280;4647;48.072;11.616;2024-01-25T04:26:02;96314.59;;;7.40;86.59
9225;BME280;4647;48.072;11.616;2024-01-25T04:28:30;96327.16;;;7.32;86.72
9225;BME280;4647;48.072;11.616;2024-01-25T04:30:59;96327.84;;;7.26;87.04
9225;BME280;4647;48.072;11.616;2024-01-25T04:33:28;96341.41;;;7.33;86.88
9225;BME280;4647;48.072;11.616;2024-01-25T04:35:57;96330.72;;;7.36;86.57
9225;BME280;4647;48.072;11.616;2024-01-25T04:38:25;96344.13;;;7.33;86.70
9225;BME280;4647;48.072;11.616;2024-01-25T04:40:57;96343.06;;;7.37;86.64
9225;BME280;4647;48.072;11.616;2024-01-25T04:43:25;96339.41;;;7.26;87.02
9225;BME280;4647;48.072;11.616;2024-01-25T04:45:53;96341.41;;;7.33;86.54
9225;BME280;4647;48.072;11.616;2024-01-25T04:48:22;96344.06;;;7.29;86.62
9225;BME280;4647;48.072;11.616;2024-01-25T04:50:50;96344.47;;;7.31;86.39
9225;BME280;4647;48.072;11.616;2024-01-25T04:53:19;96336.28;;;7.24;86.45
9225;BME280;4647;48.072;11.616;2024-01-25T04:55:47;96341.09;;;7.34;85.85
9225;BME280;4647;48.072;11.616;2024-01-25T04:58:18;96352.28;;;7.36;85.42
9225;BME280;4647;48.072;11.616;2024-01-25T05:00:47;96347.72;;;7.41;85.14
9225;BME280;4647;48.072;11.616;2024-01-25T05:03:15;96350.38;;;7.37;85.00
9225;BME280;4647;48.072;11.616;2024-01-25T05:05:44;96366.16;;;7.38;84.65
9225;BME280;4647;48.072;11.616;2024-01-25T05:08:13;96366.78;;;7.28;84.67
9225;BME280;4647;48.072;11.616;2024-01-25T05:10:39;96364.25;;;7.39;84.61
9225;BME280;4647;48.072;11.616;2024-01-25T05:13:08;96366.16;;;7.38;84.42
9225;BME280;4647;48.072;11.616;2024-01-25T05:15:39;96374.31;;;7.42;84.33
9225;BME280;4647;48.072;11.616;2024-01-25T05:18:08;96374.72;;;7.44;84.69
9225;BME280;4647;48.072;11.616;2024-01-25T05:20:36;96384.38;;;7.45;84.23
9225;BME280;4647;48.072;11.616;2024-01-25T05:23:05;96376.22;;;7.42;84.55
9225;BME280;4647;48.072;11.616;2024-01-25T05:25:33;96390.59;;;7.49;83.97
9225;BME280;4647;48.072;11.616;2024-01-25T05:28:02;96381.97;;;7.40;84.87
9225;BME280;4647;48.072;11.616;2024-01-25T05:30:31;96389.41;;;7.47;84.28
9225;BME280;4647;48.072;11.616;2024-01-25T05:33:02;96395.81;;;7.38;84.55
9225;BME280;4647;48.072;11.616;2024-01-25T05:35:31;96396.19;;;7.37;85.22
9225;BME280;4647;48.072;11.616;2024-01-25T05:38:00;96388.56;;;7.43;85.01
9225;BME280;4647;48.072;11.616;2024-01-25T05:40:28;96393.97;;;7.43;85.17
9225;BME280;4647;48.072;11.616;2024-01-25T05:42:57;96384.91;;;7.31;85.71
9225;BME280;4647;48.072;11.616;2024-01-25T05:45:25;96388.53;;;7.39;85.20
9225;BME280;4647;48.072;11.616;2024-01-25T05:47:54;96402.34;;;7.37;85.64
9225;BME280;4647;48.072;11.616;2024-01-25T05:50:25;96401.59;;;7.37;85.56
9225;BME280;4647;48.072;11.616;2024-01-25T05:52:53;96405.28;;;7.29;85.50
9225;BME280;4647;48.072;11.616;2024-01-25T05:55:22;96409.84;;;7.25;85.46
9225;BME280;4647;48.072;11.616;2024-01-25T05:57:50;96410.63;;;7.25;85.56
9225;BME280;4647;48.072;11.616;2024-01-25T06:00:19;96419.13;;;7.27;85.28
9225;BME280;4647;48.072;11.616;2024-01-25T06:02:48;96414.50;;;7.28;84.92
9225;BME280;4647;48.072;11.616;2024-01-25T06:05:16;96423.69;;;7.23;85.19
9225;BME280;4647;48.072;11.616;2024-01-25T06:07:47;96422.28;;;7.33;85.02
9225;BME280;4647;48.072;11.616;2024-01-25T06:10:16;96438.41;;;7.29;85.24
9225;BME280;4647;48.072;11.616;2024-01-25T06:12:44;96430.22;;;7.22;85.25
9225;BME280;4647;48.072;11.616;2024-01-25T06:15:14;96445.44;;;7.34;84.77
9225;BME280;4647;48.072;11.616;2024-01-25T06:17:42;96437.22;;;7.27;84.63
9225;BME280;4647;48.072;11.616;2024-01-25T06:20:11;96447.22;;;7.26;84.18
9225;BME280;4647;48.072;11.616;2024-01-25T06:22:39;96465.72;;;7.28;84.01
9225;BME280;4647;48.072;11.616;2024-01-25T06:25:11;96454.00;;;7.17;84.54
9225;BME280;4647;48.072;11.616;2024-01-25T06:27:40;96461.06;;;7.25;84.09
9225;BME280;4647;48.072;11.616;2024-01-25T06:30:10;96470.13;;;7.36;84.03
9225;BME280;4647;48.072;11.616;2024-01-25T06:32:39;96466.09;;;7.26;84.07
9225;BME280;4647;48.072;11.616;2024-01-25T06:35:08;96473.75;;;7.24;83.52
9225;BME280;4647;48.072;11.616;2024-01-25T06:37:36;96481.31;;;7.15;84.05
9225;BME280;4647;48.072;11.616;2024-01-25T06:40:10;96484.00;;;7.15;83.87
9225;BME280;4647;48.072;11.616;2024-01-25T06:42:38;96494.56;;;7.04;83.67
9225;BME280;4647;48.072;11.616;2024-01-25T06:45:08;96474.19;;;7.07;83.65
9225;BME280;4647;48.072;11.616;2024-01-25T06:47:37;96486.19;;;7.09;84.01
9225;BME280;4647;48.072;11.616;2024-01-25T06:50:07;96496.63;;;7.11;84.02
9225;BME280;4647;48.072;11.616;2024-01-25T06:52:35;96498.44;;;7.07;83.93
9225;BME280;4647;48.072;11.616;2024-01-25T06:55:05;96492.66;;;7.05;84.23
9225;BME280;4647;48.072;11.616;2024-01-25T06:57:38;96498.03;;;7.05;84.49
9225;BME280;4647;48.072;11.616;2024-01-25T07:00:07;96504.06;;;6.98;84.58
9225;BME280;4647;48.072;11.616;2024-01-25T07:02:38;96509.47;;;6.98;84.84
9225;BME280;4647;48.072;11.616;2024-01-25T07:05:07;96511.50;;;6.86;85.30
9225;BME280;4647;48.072;11.616;2024-01-25T07:07:36;96506.78;;;6.79;85.39
9225;BME280;4647;48.072;11.616;2024-01-25T07:10:06;96499.19;;;6.65;85.83
9225;BME280;4647;48.072;11.616;2024-01-25T07:12:39;96500.59;;;6.78;85.88
9225;BME280;4647;48.072;11.616;2024-01-25T07:15:08;96522.03;;;6.71;85.23
9225;BME280;4647;48.072;11.616;2024-01-25T07:17:36;96518.63;;;6.74;85.63
9225;BME280;4647;48.072;11.616;2024-01-25T07:20:06;96520.81;;;6.69;85.54
9225;BME280;4647;48.072;11.616;2024-01-25T07:22:35;96518.06;;;6.65;85.99
9225;BME280;4647;48.072;11.616;2024-01-25T07:25:04;96526.75;;;6.78;85.74
9225;BME280;4647;48.072;11.616;2024-01-25T07:27:33;96527.69;;;6.66;86.21
9225;BME280;4647;48.072;11.616;2024-01-25T07:30:05;96532.38;;;6.69;86.09
9225;BME280;4647;48.072;11.616;2024-01-25T07:32:36;96533.63;;;6.75;85.87
9225;BME280;4647;48.072;11.616;2024-01-25T07:35:07;96541.22;;;6.70;86.27
9225;BME280;4647;48.072;11.616;2024-01-25T07:37:35;96540.81;;;6.68;86.25
9225;BME280;4647;48.072;11.616;2024-01-25T07:40:05;96547.47;;;6.74;86.18
9225;BME280;4647;48.072;11.616;2024-01-25T07:42:34;96547.25;;;6.63;86.77
9225;BME280;4647;48.072;11.616;2024-01-25T07:45:07;96551.41;;;6.61;86.72
9225;BME280;4647;48.072;11.616;2024-01-25T07:47:35;96555.91;;;6.72;86.16
9225;BME280;4647;48.072;11.616;2024-01-25T07:50:05;96556.53;;;6.66;86.14
9225;BME280;4647;48.072;11.616;2024-01-25T07:52:33;96575.06;;;6.87;84.50
9225;BME280;4647;48.072;11.616;2024-01-25T07:55:02;96573.34;;;6.98;84.22
9225;BME280;4647;48.072;11.616;2024-01-25T07:57:31;96573.91;;;7.07;83.70
9225;BME280;4647;48.072;11.616;2024-01-25T07:59:59;96574.25;;;7.05;84.19
9225;BME280;4647;48.072;11.616;2024-01-25T08:02:30;96566.34;;;7.13;84.25
9225;BME280;4647;48.072;11.616;2024-01-25T08:04:58;96579.50;;;6.98;84.68
9225;BME280;4647;48.072;11.616;2024-01-25T08:07:27;96582.41;;;7.09;83.91
9225;BME280;4647;48.072;11.616;2024-01-25T08:09:56;96584.44;;;7.12;83.30
9225;BME280;4647;48.072;11.616;2024-01-25T08:12:25;96588.66;;;7.32;82.77
9225;BME280;4647;48.072;11.616;2024-01-25T08:14:54;96582.63;;;7.20;81.57
9225;BME280;4647;48.072;11.616;2024-01-25T08:17:22;96574.06;;;7.14;81.03
9225;BME280;4647;48.072;11.616;2024-01-25T08:19:53;96596.47;;;7.18;80.10
9225;BME280;4647;48.072;11.616;2024-01-25T08:22:22;96594.63;;;7.22;79.66
9225;BME280;4647;48.072;11.616;2024-01-25T08:24:52;96596.53;;;7.22;79.56
9225;BME280;4647;48.072;11.616;2024-01-25T08:27:20;96580.28;;;7.37;78.68
9225;BME280;4647;48.072;11.616;2024-01-25T08:29:49;96587.50;;;7.53;77.84
9225;BME280;4647;48.072;11.616;2024-01-25T08:32:17;96593.19;;;7.48;77.09
9225;BME280;4647;48.072;11.616;2024-01-25T08:34:46;96596.09;;;7.58;76.63
9225;BME280;4647;48.072;11.616;2024-01-25T08:37:17;96582.84;;;7.73;76.58
9225;BME280;4647;48.072;11.616;2024-01-25T08:39:45;96564.41;;;7.55;76.74
9225;BME280;4647;48.072;11.616;2024-01-25T08:42:16;96562.84;;;7.54;77.22
9225;BME280;4647;48.072;11.616;2024-01-25T08:44:45;96567.84;;;7.75;77.03
9225;BME280;4647;48.072;11.616;2024-01-25T08:47:14;96564.50;;;7.59;76.82
9225;BME280;4647;48.072;11.616;2024-01-25T08:49:43;96565.00;;;7.45;77.53
9225;BME280;4647;48.072;11.616;2024-01-25T08:52:12;96568.41;;;7.61;77.30
9225;BME280;4647;48.072;11.616;2024-01-25T08:54:43;96573.97;;;7.72;76.37
9225;BME280;4647;48.072;11.616;2024-01-25T08:57:11;96578.00;;;7.82;75.33
9225;BME280;4647;48.072;11.616;2024-01-25T08:59:42;96584.34;;;7.93;74.80
9225;BME280;4647;48.072;11.616;2024-01-25T09:02:10;96591.66;;;7.92;74.09
9225;BME280;4647;48.072;11.616;2024-01-25T09:04:39;96587.22;;;8.04;73.34
9225;BME280;4647;48.072;11.616;2024-01-25T09:07:08;96574.09;;;8.02;73.40
9225;BME280;4647;48.072;11.616;2024-01-25T09:09:37;96588.06;;;7.85;72.99
9225;BME280;4647;48.072;11.616;2024-01-25T09:12:08;96597.47;;;7.94;71.89
9225;BME280;4647;48.072;11.616;2024-01-25T09:14:38;96605.22;;;7.96;72.75
9225;BME280;4647;48.072;11.616;2024-01-25T09:17:07;96598.94;;;7.88;72.59
9225;BME280;4647;48.072;11.616;2024-01-25T09:19:36;96600.72;;;7.81;72.21
9225;BME280;4647;48.072;11.616;2024-01-25T09:22:04;96597.84;;;7.93;71.09
9225;BME280;4647;48.072;11.616;2024-01-25T09:24:33;96603.97;;;7.90;71.06
9225;BME280;4647;48.072;11.616;2024-01-25T09:27:02;96609.31;;;7.86;71.24
9225;BME280;4647;48.072;11.616;2024-01-25T09:29:33;96610.38;;;7.82;70.74
9225;BME280;4647;48.072;11.616;2024-01-25T09:32:04;96609.47;;;7.97;70.98
9225;BME280;4647;48.072;11.616;2024-01-25T09:34:33;96620.81;;;7.83;70.47
9225;BME280;4647;48.072;11.616;2024-01-25T09:37:01;96634.44;;;7.90;69.75
9225;BME280;4647;48.072;11.616;2024-01-25T09:39:31;96629.91;;;7.98;69.04
9225;BME280;4647;48.072;11.616;2024-01-25T09:42:00;96628.72;;;7.95;69.39
9225;BME280;4647;48.072;11.616;2024-01-25T09:44:30;96633.28;;;7.91;69.20
9225;BME280;4647;48.072;11.616;2024-01-25T09:47:03;96632.97;;;7.96;69.07
9225;BME280;4647;48.072;11.616;2024-01-25T09:49:33;96625.44;;;8.06;68.50
9225;BME280;4647;48.072;11.616;2024-01-25T09:52:03;96629.97;;;8.01;69.28
9225;BME280;4647;48.072;11.616;2024-01-25T09:54:34;96624.53;;;7.98;69.95
9225;BME280;4647;48.072;11.616;2024-01-25T09:57:07;96625.00;;;8.04;70.50
9225;BME280;4647;48.072;11.616;2024-01-25T09:59:40;96626.34;;;8.13;70.45
9225;BME280;4647;48.072;11.616;2024-01-25T10:02:11;96644.63;;;8.23;70.55
9225;BME280;4647;48.072;11.616;2024-01-25T10:04:40;96637.25;;;8.20;71.37
9225;BME280;4647;48.072;11.616;2024-01-25T10:07:08;96651.28;;;8.29;70.97
9225;BME280;4647;48.072;11.616;2024-01-25T10:09:40;96640.38;;;8.45;72.05
9225;BME280;4647;48.072;11.616;2024-01-25T10:12:09;96639.41;;;8.57;72.76
9225;BME280;4647;48.072;11.616;2024-01-25T10:14:38;96632.91;;;8.35;69.78
9225;BME280;4647;48.072;11.616;2024-01-25T10:17:06;96632.28;;;8.45;71.51
9225;BME280;4647;48.072;11.616;2024-01-25T10:19:38;96627.28;;;8.74;71.59
9225;BME280;4647;48.072;11.616;2024-01-25T10:22:10;96635.53;;;8.81;68.92
9225;BME280;4647;48.072;11.616;2024-01-25T10:24:39;96628.47;;;8.50;67.88
9225;BME280;4647;48.072;11.616;2024-01-25T10:27:08;96619.72;;;8.56;68.53
9225;BME280;4647;48.072;11.616;2024-01-25T10:29:37;96617.91;;;8.64;69.00
9225;BME280;4647;48.072;11.616;2024-01-25T10:32:08;96612.75;;;8.55;69.70
9225;BME280;4647;48.072;11.616;2024-01-25T10:34:39;96608.09;;;8.52;69.72
9225;BME280;4647;48.072;11.616;2024-01-25T10:37:08;96609.47;;;8.69;69.43
9225;BME280;4647;48.072;11.616;2024-01-25T10:39:37;96606.50;;;8.51;70.45
9225;BME280;4647;48.072;11.616;2024-01-25T10:42:06;96596.84;;;8.50;70.65
9225;BME280;4647;48.072;11.616;2024-01-25T10:44:35;96597.75;;;8.58;70.15
9225;BME280;4647;48.072;11.616;2024-01-25T10:47:05;96593.13;;;8.58;70.74
9225;BME280;4647;48.072;11.616;2024-01-25T10:49:35;96588.22;;;8.68;69.49
9225;BME280;4647;48.072;11.616;2024-01-25T10:52:07;96600.50;;;8.61;70.12
9225;BME280;4647;48.072;11.616;2024-01-25T10:54:37;96589.84;;;8.46;70.32
9225;BME280;4647;48.072;11.616;2024-01-25T10:57:06;96586.41;;;8.26;70.85
9225;BME280;4647;48.072;11.616;2024-01-25T10:59:34;96587.91;;;8.46;70.75
9225;BME280;4647;48.072;11.616;2024-01-25T11:02:03;96579.91;;;8.80;69.77
9225;BME280;4647;48.072;11.616;2024-01-25T11:04:33;96568.41;;;8.56;69.56
9225;BME280;4647;48.072;11.616;2024-01-25T11:07:07;96570.91;;;8.19;70.92
9225;BME280;4647;48.072;11.616;2024-01-25T11:09:37;96568.88;;;8.13;71.50
9225;BME280;4647;48.072;11.616;2024-01-25T11:12:11;96550.44;;;8.41;71.35
9225;BME280;4647;48.072;11.616;2024-01-25T11:14:40;96547.81;;;8.48;70.40
9225;BME280;4647;48.072;11.616;2024-01-25T11:17:15;96547.13;;;8.28;71.10
9225;BME280;4647;48.072;11.616;2024-01-25T11:19:48;96539.22;;;8.39;71.03
9225;BME280;4647;48.072;11.616;2024-01-25T11:22:20;96534.22;;;8.41;71.05
9225;BME280;4647;48.072;11.616;2024-01-25T11:24:50;96536.81;;;8.60;69.86
9225;BME280;4647;48.072;11.616;2024-01-25T11:27:19;96534.53;;;8.63;70.06
9225;BME280;4647;48.072;11.616;2024-01-25T11:29:48;96530.66;;;8.64;69.91
9225;BME280;4647;48.072;11.616;2024-01-25T11:32:16;96523.84;;;8.73;68.86
9225;BME280;4647;48.072;11.616;2024-01-25T11:34:44;96525.81;;;8.46;69.22
9225;BME280;4647;48.072;11.616;2024-01-25T11:37:13;96523.50;;;8.48;69.39
9225;BME280;4647;48.072;11.616;2024-01-25T11:39:46;96524.03;;;8.57;68.91
9225;BME280;4647;48.072;11.616;2024-01-25T11:42:15;96522.34;;;8.76;68.79
9225;BME280;4647;48.072;11.616;2024-01-25T11:44:44;96514.97;;;8.73;67.47
9225;BME280;4647;48.072;11.616;2024-01-25T11:47:12;96517.22;;;8.67;64.97
9225;BME280;4647;48.072;11.616;2024-01-25T11:49:40;96528.69;;;8.90;63.19
9225;BME280;4647;48.072;11.616;2024-01-25T11:52:09;96524.88;;;8.95;62.73
9225;BME280;4647;48.072;11.616;2024-01-25T11:54:38;96509.31;;;8.85;63.40
9225;BME280;4647;48.072;11.616;2024-01-25T11:57:10;96507.00;;;8.83;63.17
9225;BME280;4647;48.072;11.616;2024-01-25T11:59:38;96501.97;;;8.82;63.33
9225;BME280;4647;48.072;11.616;2024-01-25T12:02:10;96494.25;;;9.17;63.01
9225;BME280;4647;48.072;11.616;2024-01-25T12:04:39;96497.44;;;9.27;62.33
9225;BME280;4647;48.072;11.616;2024-01-25T12:07:08;96490.63;;;9.43;62.87
9225;BME280;4647;48.072;11.616;2024-01-25T12:09:36;96500.88;;;9.64;61.42
9225;BME280;4647;48.072;11.616;2024-01-25T12:12:06;96503.94;;;9.59;61.37
9225;BME280;4647;48.072;11.616;2024-01-25T12:14:37;96495.66;;;9.45;61.95
9225;BME280;4647;48.072;11.616;2024-01-25T12:17:05;96492.66;;;9.50;61.69
9225;BME280;4647;48.072;11.616;2024-01-25T12:19:34;96479.59;;;9.63;62.32
9225;BME280;4647;48.072;11.616;2024-01-25T12:22:03;96481.75;;;9.91;61.41
9225;BME280;4647;48.072;11.616;2024-01-25T12:24:31;96481.94;;;10.15;60.65
9225;BME280;4647;48.072;11.616;2024-01-25T12:27:00;96480.16;;;10.34;60.11
9225;BME280;4647;48.072;11.616;2024-01-25T12:29:28;96478.75;;;10.03;60.75
9225;BME280;4647;48.072;11.616;2024-01-25T12:31:59;96481.06;;;10.01;60.92
9225;BME280;4647;48.072;11.616;2024-01-25T12:34:28;96488.13;;;10.16;59.20
9225;BME280;4647;48.072;11.616;2024-01-25T12:36:56;96479.09;;;9.94;59.78
9225;BME280;4647;48.072;11.616;2024-01-25T12:39:25;96480.31;;;10.04;61.19
9225;BME280;4647;48.072;11.616;2024-01-25T12:41:53;96479.16;;;10.05;60.19
9225;BME280;4647;48.072;11.616;2024-01-25T12:44:22;96467.91;;;9.96;61.42
9225;BME280;4647;48.072;11.616;2024-01-25T12:46:50;96472.63;;;10.09;62.04
9225;BME280;4647;48.072;11.616;2024-01-25T12:49:21;96479.50;;;9.96;61.89
9225;BME280;4647;48.072;11.616;2024-01-25T12:51:50;96474.78;;;9.90;62.04
9225;BME280;4647;48.072;11.616;2024-01-25T12:54:21;96465.22;;;9.99;60.82
9225;BME280;4647;48.072;11.616;2024-01-25T12:56:49;96463.28;;;10.00;60.62
9225;BME280;4647;48.072;11.616;2024-01-25T12:59:18;96467.19;;;10.09;60.82
9225;BME280;4647;48.072;11.616;2024-01-25T13:01:46;96471.31;;;9.89;59.77
9225;BME280;4647;48.072;11.616;2024-01-25T13:04:15;96471.69;;;9.91;60.86
9225;BME280;4647;48.072;11.616;2024-01-25T13:06:46;96467.53;;;10.01;61.79
9225;BME280;4647;48.072;11.616;2024-01-25T13:09:14;96463.56;;;9.88;61.80
9225;BME280;4647;48.072;11.616;2024-01-25T13:11:43;96467.78;;;9.81;61.92
9225;BME280;4647;48.072;11.616;2024-01-25T13:14:12;96458.44;;;9.72;62.97
9225;BME280;4647;48.072;11.616;2024-01-25T13:16:40;96465.06;;;9.81;62.13
9225;BME280;4647;48.072;11.616;2024-01-25T13:19:09;96449.88;;;9.70;62.75
9225;BME280;4647;48.072;11.616;2024-01-25T13:21:37;96450.03;;;9.88;62.71
9225;BME280;4647;48.072;11.616;2024-01-25T13:24:08;96445.53;;;10.09;62.03
9225;BME280;4647;48.072;11.616;2024-01-25T13:26:37;96446.16;;;9.89;62.09
9225;BME280;4647;48.072;11.616;2024-01-25T13:29:06;96451.97;;;9.87;61.66
9225;BME280;4647;48.072;11.616;2024-01-25T13:31:38;96442.25;;;9.79;61.99
9225;BME280;4647;48.072;11.616;2024-01-25T13:34:06;96431.81;;;9.81;62.85